首页
METAR-TAF:

METAR-TAF

机场 :

RAF

Holbeach, 英格兰

纬度: 52-52N, 经度: 000-09E, 海拔: 3米

当前天气观测

该预报发布于50分钟前的19:50 UTC
风速16节,风向西北
温度 8°C
湿度 81%
气压 995 hPa
能见度10公里或以上
多云层高于4000英尺

METAR: EGYH 121950Z 31016KT 9999 BKN040 08/05 Q0995 RMK BLU

时间: 20:40 (20:40 UTC)


TAF: 丢失

超过4000个机场的气象观测和天气预报(METAR&TAF报告)。

可查询的气象台以黄色和红色小点在地图上表示。

将鼠标移到小点上方,可查看气象台名称。

然后点击查看天气观测和预报。

如需切换地图:点击带黑十字的绿色按钮放大地图;点击带横线的绿色按钮缩小地图;或者点击绿色箭头查看邻近地区的地图。


METAR-TAF: